Ushuaia, Argentina
Current Conditions -  °F | °C
As of 5:00 AM on Saturday 25 Oct 2014 (Local Time) from SAWH Reporting Station
Scattered Clouds Scattered Clouds  
Wind Chill: 37°   Ceiling: Unl
Heat Index: 43°   Visibility: 6mi
Dew Point: 34°   Wind: 9mph
Humidity: 70%   Direction: 360°N
Pressure: 29.38"   Gusts: NA
Location:  54.79°S, 68.31°W
Report Text: SAWH 250800Z 36008KT 9999 SCT035 SCT10006/01 Q0995
Loading
Personal Weather Stations






























Interactive Weather Map
Tropical Storm Tracking
New forecast layout! Learn more

10-Day Weather Forecast

Advertisements
Track Severe Weather on mobile